Portada
METAR-TAF:

METAR-TAF

Aeroports :

Teheran, Iran

latitud: 35-41N, longitud: 051-21E, altitud: 1204 m

Observació

L'informe es va fer fa 36 minuts, a les 13:30 UTC
Vent 10 kt del Oest
Temperatura 37°C
Humitat 14%
Pressió 1005 hPa
Visibilitat 10 km o més
sense núvols per sota de 1500 mi sense presència de cumulonimbus.

METAR: OIII 191330Z 27010KT CAVOK 37/05 Q1004 A2967

Hora: 18:36 (14:06 UTC)

Pronòstic

L'informe es va fer fa 3 hores i 6 minuts, a les 11:00 UTC
Pronòstic vàlid del 19 a les 12 UTC al 20 a les 18 UTC
Vent 8 kt del Sud
Visibilitat: 7000 m
Temporalment
l' 19 a les 16 UTC al 19 a les 24 UTC
Vent 19 kt del Nord-Oest
Temporalment
l' 20 a les 14 UTC al 20 a les 18 UTC
Vent 17 kt del Nord-Oest

TAF: OIII 191100Z 1912/2018 18004MPS 7000 NSC TEMPO 1916/1924 32010MPS TEMPO 2014/2018 32009MPS

Observacions i pronòstics meteorològics de més de 4000 aeroports (METAR i TAF).

Les estacions disponibles són els punts grocs i vermells al mapa.

Posi el ratolí al punt desitjat per veure el nom de l'estació.

Feu clic per veure les observacions i els pronòstics meteorològics.

Per canviar el mapa: feu clic els botons verds amb una creu de color negre per apropar; al botó verd amb un guió per allunyar la imatge; o en les fletxes verdes per a mapes adjacents.


METAR-TAF: